Latest Weather Observations for Ballarat

IDV60801

Issued at 12:42 pm EDT Friday 18 October 2019 (issued every 10 minutes, with the page automatically refreshed every 10 minutes)

About weather observations | Map of weather stations | Latest weather observations for VIC | Other Formats
Station Details ID: 089002 Name: BALLARAT AERODROME Lat: -37.51 Lon: 143.79 Height: 435.2 m
Data from the previous 72 hours. | See also: Recent months at Ballarat
Date/Time
EDT
Temp
°C
App
Temp
°C
Dew
Point
°C
Rel
Hum
%
Delta-T
°C
Wind Press
QNH
hPa
Press
MSL
hPa
Rain since
9am
mm
Dir  Spd
km/h
Gust
km/h
Spd
kts
Gust
kts
18/12:30pm 14.3 5.7 8.0 66 3.2 NNW 43 56 23 30 1013.4 1013.2 0.0
18/12:00pm 12.7 3.2 6.7 67 2.9 NNW 46 61 25 33 1013.5 1013.3 0.0
18/11:51am 11.6 2.6 6.5 71 2.5 NNW 43 61 23 33 1013.8 1013.6 0.0
18/11:30am 11.8 3.6 6.7 71 2.5 NNW 39 50 21 27 1014.4 1014.3 0.0
18/11:00am 11.4 3.4 7.5 77 1.9 NNW 39 54 21 29 1014.8 1014.7 0.0
18/10:45am 10.7 3.4 7.0 78 1.8 NNW 35 54 19 29 1014.8 1014.7 0.0
18/10:30am 9.9 3.0 7.2 83 1.3 NNW 33 46 18 25 1015.0 1014.9 0.0
18/10:00am 8.6 0.9 7.1 90 0.7 N 37 44 20 24 1015.0 1014.9 0.0
18/09:47am 8.1 -0.2 6.1 87 0.9 N 39 52 21 28 1014.8 1014.7 0.0
18/09:30am 7.9 1.9 7.1 95 0.4 N 28 33 15 18 1015.1 1015.0 0.0
18/09:00am 6.6 0.0 6.2 97 0.2 N 30 35 16 19 1015.3 1015.2 5.8
18/08:30am 5.7 -0.3 5.4 98 0.1 N 26 32 14 17 1015.1 1015.0 5.8
18/08:00am 4.8 -1.0 4.5 98 0.1 NNE 24 33 13 18 1015.0 1014.9 5.8
18/07:30am 3.7 -2.3 3.6 99 0.0 N 24 30 13 16 1015.0 1014.9 5.8
18/07:00am 2.7 -2.5 2.6 99 0.0 NNE 19 20 10 11 1015.0 1014.9 5.8
18/06:30am 2.4 -2.8 2.4 100 0.0 NNE 19 22 10 12 1014.9 1014.8 5.8
18/06:00am 1.9 -2.6 1.9 100 0.0 NNE 15 17 8 9 1014.8 1014.7 5.8
18/05:30am 2.1 -2.8 2.1 100 0.0 N 17 20 9 11 1015.1 1015.0 5.8
18/05:00am 1.6 -3.0 1.5 99 0.0 N 15 17 8 9 1014.9 1014.8 5.8
18/04:30am 1.2 -2.3 1.1 99 0.0 NNW 9 13 5 7 1015.3 1015.2 5.8
18/04:00am 1.0 -2.9 0.9 99 0.0 NNW 11 13 6 7 1015.5 1015.4 5.8
18/03:30am 1.6 -2.6 1.5 99 0.0 N 13 13 7 7 1015.5 1015.4 5.8
18/03:00am 1.6 -1.9 1.5 99 0.0 N 9 11 5 6 1015.9 1015.7 5.8
18/02:30am 1.5 -2.0 1.4 99 0.0 N 9 11 5 6 1016.0 1015.9 5.8
18/02:00am 2.5 -0.4 2.4 99 0.0 N 7 9 4 5 1016.4 1016.3 5.8
18/01:30am 2.7 -0.6 2.4 98 0.1 N 9 9 5 5 1016.5 1016.4 5.8
18/01:00am 3.5 -0.1 3.2 98 0.1 N 11 11 6 6 1016.4 1016.3 5.8
18/12:30am 4.8 1.6 3.3 90 0.6 WNW 9 11 5 6 1016.6 1016.5 5.8
18/12:00am 6.4 3.0 4.2 86 1.0 W 11 20 6 11 1016.7 1016.6 5.8
 
Date/Time
EDT
Temp
°C
App
Temp
°C
Dew
Point
°C
Rel
Hum
%
Delta-T
°C
Wind Press
QNH
hPa
Press
MSL
hPa
Rain since
9am
mm
Dir  Spd
km/h
Gust
km/h
Spd
kts
Gust
kts
17/11:30pm 6.9 3.5 5.8 93 0.5 W 13 20 7 11 1016.8 1016.7 5.8
17/11:00pm 6.8 4.3 6.5 98 0.1 W 9 11 5 6 1017.0 1016.9 5.8
17/10:30pm 6.8 4.3 6.5 98 0.1 WSW 9 13 5 7 1017.1 1017.0 5.8
17/10:00pm 6.8 3.5 6.5 98 0.1 WSW 13 17 7 9 1017.1 1017.0 5.8
17/09:30pm 7.5 3.6 7.2 98 0.1 WSW 17 26 9 14 1016.8 1016.7 5.8
17/09:00pm 8.1 3.8 8.0 99 0.0 W 20 32 11 17 1016.4 1016.3 5.8
17/08:30pm 8.2 4.5 8.1 99 0.0 WSW 17 24 9 13 1015.9 1015.7 5.8
17/08:26pm 8.3 4.7 8.2 99 0.0 WSW 17 22 9 12 1015.9 1015.7 5.8
17/08:00pm 8.1 5.2 8.0 99 0.0 WSW 13 20 7 11 1015.4 1015.3 5.8
17/07:55pm 8.1 4.8 8.0 99 0.0 SW 15 22 8 12 1015.3 1015.2 5.8
17/07:30pm 8.1 4.0 8.0 99 0.0 WSW 19 24 10 13 1015.1 1015.0 5.8
17/07:23pm 8.1 4.0 8.0 99 0.0 WSW 19 28 10 15 1015.0 1014.9 5.8
17/07:00pm 8.2 3.6 8.1 99 0.0 WSW 22 35 12 19 1014.6 1014.5 5.6
17/06:40pm 8.8 3.5 8.5 98 0.1 W 26 43 14 23 1014.0 1013.9 5.6
17/06:30pm 9.1 5.0 8.8 98 0.2 WSW 20 28 11 15 1013.8 1013.6 5.6
17/06:21pm 9.2 4.4 8.9 98 0.2 WSW 24 32 13 17 1013.7 1013.5 5.6
17/06:02pm 9.2 4.1 9.1 99 0.1 WSW 26 37 14 20 1013.5 1013.3 5.6
17/06:00pm 9.3 4.2 9.2 99 0.1 WSW 26 37 14 20 1013.5 1013.3 5.6
17/05:37pm 9.3 3.4 9.0 98 0.2 WSW 30 43 16 23 1013.3 1013.1 5.6
17/05:30pm 9.9 4.1 9.6 98 0.2 WSW 30 41 16 22 1013.0 1012.9 5.4
17/05:08pm 9.1 2.6 9.0 99 0.1 WSW 33 52 18 28 1012.5 1012.4 5.4
17/05:00pm 9.6 3.8 9.3 98 0.2 WSW 30 41 16 22 1012.5 1012.4 5.4
17/04:30pm 9.1 3.5 8.8 98 0.2 WSW 28 37 15 20 1012.1 1012.0 5.4
17/04:14pm 8.6 1.9 8.3 98 0.1 WSW 33 52 18 28 1012.1 1012.0 5.0
17/04:09pm 8.3 2.6 8.2 99 0.0 WSW 28 46 15 25 1012.1 1012.0 5.0
17/04:00pm 7.8 1.9 7.7 99 0.0 WSW 28 39 15 21 1012.2 1012.1 5.0
17/03:30pm 9.4 3.1 9.1 98 0.2 WSW 32 46 17 25 1011.6 1011.4 3.8
17/03:00pm 9.6 2.5 9.5 99 0.1 W 37 69 20 37 1011.7 1011.5 3.8
17/02:53pm 8.6 1.2 8.5 99 0.0 W 37 69 20 37 1011.6 1011.4 3.8
17/02:50pm 8.6 2.2 8.5 99 0.0 W 32 56 17 30 1011.6 1011.4 3.8
17/02:42pm 8.2 1.7 8.1 99 0.0 W 32 41 17 22 1011.7 1011.5 3.8
17/02:30pm 7.7 0.5 7.6 99 0.0 WSW 35 54 19 29 1011.7 1011.5 3.0
17/02:23pm 6.8 -0.7 6.4 97 0.2 W 35 54 19 29 1011.9 1011.7 2.6
17/02:22pm 7.1 -0.4 6.4 95 0.3 W 35 54 19 29 1011.9 1011.7 2.4
17/02:00pm 8.4 0.1 7.8 96 0.3 W 41 56 22 30 1011.6 1011.4 0.8
17/01:31pm 8.4 1.3 8.0 97 0.2 W 35 54 19 29 1011.3 1011.1 0.8
17/01:30pm 8.7 1.3 8.4 98 0.1 W 37 54 20 29 1011.4 1011.2 0.8
17/01:17pm 8.4 0.6 8.1 98 0.1 W 39 54 21 29 1011.3 1011.1 0.8
17/01:07pm 8.2 0.7 7.9 98 0.1 W 37 56 20 30 1011.4 1011.2 0.8
17/01:00pm 7.8 0.2 7.5 98 0.1 W 37 56 20 30 1011.4 1011.2 0.8
17/12:58pm 7.9 0.3 7.6 98 0.1 W 37 56 20 30 1011.3 1011.1 0.4
17/12:30pm 7.7 -0.7 5.7 87 0.9 W 39 54 21 29 1011.1 1010.9 0.2
17/12:00pm 7.7 -1.0 3.9 77 1.7 W 39 57 21 31 1010.9 1010.7 0.0
17/11:38am 9.6 0.1 2.0 59 3.3 W 41 61 22 33 1010.4 1010.3 0.0
17/11:30am 9.8 0.1 2.6 61 3.2 W 43 57 23 31 1010.5 1010.4 0.0
17/11:00am 10.4 1.4 4.8 68 2.6 W 41 61 22 33 1010.4 1010.3 0.0
17/10:35am 9.3 0.5 3.7 68 2.5 W 39 59 21 32 1010.2 1010.1 0.0
17/10:30am 9.6 1.4 5.0 73 2.1 W 37 54 20 29 1010.2 1010.1 0.0
17/10:00am 8.3 0.4 4.3 76 1.8 W 35 50 19 27 1009.9 1009.7 0.0
17/09:39am 7.9 0.7 5.2 83 1.2 W 32 50 17 27 1009.8 1009.6 0.0
17/09:30am 7.8 -0.3 5.3 84 1.1 W 37 48 20 26 1009.7 1009.5 0.0
17/09:08am 7.5 0.6 6.3 92 0.6 W 32 52 17 28 1009.5 1009.3 0.0
17/09:00am 7.0 0.1 6.3 95 0.3 W 32 48 17 26 1009.4 1009.2 10.6
17/08:59am 6.9 -0.2 6.2 95 0.3 W 33 52 18 28 1009.4 1009.2 10.6
17/08:30am 6.5 -1.5 5.8 95 0.3 WNW 37 46 20 25 1009.1 1008.9 10.6
17/08:00am 6.0 -1.1 5.7 98 0.1 W 32 46 17 25 1008.9 1008.7 10.6
17/07:30am 5.9 -1.2 5.3 96 0.3 W 32 43 17 23 1008.4 1008.2 10.6
17/07:00am 6.1 -0.6 5.5 96 0.3 WNW 30 39 16 21 1007.9 1007.7 10.6
17/06:30am 6.0 1.2 5.7 98 0.1 WNW 20 28 11 15 1007.7 1007.5 10.6
17/06:00am 5.7 1.1 5.4 98 0.1 NW 19 24 10 13 1007.3 1007.1 10.6
17/05:30am 5.7 2.2 5.4 98 0.1 NNW 13 15 7 8 1007.1 1006.9 10.6
17/05:00am 5.8 1.9 5.5 98 0.1 NW 15 19 8 10 1007.0 1006.8 10.6
17/04:30am 6.8 2.2 6.5 98 0.1 NW 20 30 11 16 1007.0 1006.8 10.6
17/04:00am 7.2 2.9 7.1 99 0.0 NNW 19 24 10 13 1007.1 1006.9 10.2
17/03:30am 7.4 4.6 7.1 98 0.1 NNW 11 17 6 9 1007.3 1007.1 10.2
17/03:00am 7.4 3.9 7.1 98 0.1 NW 15 20 8 11 1007.6 1007.4 10.2
17/02:30am 7.5 3.1 7.4 99 0.0 NW 20 26 11 14 1007.9 1007.7 10.2
17/02:00am 7.9 2.5 7.9 100 0.0 WNW 26 39 14 21 1008.0 1007.8 10.0
17/01:30am 8.2 4.2 8.2 100 0.0 NNW 19 24 10 13 1008.1 1008.0 9.8
17/01:28am 8.1 4.1 8.1 100 0.0 NNW 19 22 10 12 1008.1 1008.0 9.8
17/01:00am 7.1 3.6 7.1 100 0.0 N 15 17 8 9 1008.4 1008.2 9.8
17/12:38am 7.5 5.2 7.5 100 0.0 NNE 9 13 5 7 1008.4 1008.2 9.8
17/12:30am 7.7 5.5 7.7 100 0.0 N 9 11 5 6 1008.5 1008.3 9.8
17/12:11am 8.8 6.4 8.8 100 0.0 N 11 15 6 8 1008.8 1008.6 9.8
17/12:00am 9.5 7.3 9.5 100 0.0 N 11 15 6 8 1009.0 1008.8 9.8
 
Date/Time
EDT
Temp
°C
App
Temp
°C
Dew
Point
°C
Rel
Hum
%
Delta-T
°C
Wind Press
QNH
hPa
Press
MSL
hPa
Rain since
9am
mm
Dir  Spd
km/h
Gust
km/h
Spd
kts
Gust
kts
16/11:31pm 9.5 7.7 9.5 100 0.0 WSW 9 11 5 6 1009.3 1009.1 9.8
16/11:30pm 9.6 7.8 9.6 100 0.0 W 9 11 5 6 1009.3 1009.1 9.8
16/11:14pm 9.2 9.0 9.2 100 0.0 CALM 0 7 0 4 1009.2 1009.0 9.8
16/11:00pm 9.5 9.4 9.5 100 0.0 CALM 0 0 0 0 1009.1 1008.9 9.8
16/10:30pm 9.7 9.7 9.7 100 0.0 CALM 0 0 0 0 1009.4 1009.2 9.8
16/10:00pm 10.1 9.0 10.1 100 0.0 E 6 9 3 5 1009.6 1009.4 9.8
16/09:38pm 10.0 7.2 10.0 100 0.0 SSE 15 20 8 11 1009.6 1009.4 9.0
16/09:30pm 10.1 7.7 10.1 100 0.0 SSE 13 17 7 9 1009.6 1009.4 8.2
16/09:26pm 10.2 7.8 10.1 99 0.1 SE 13 17 7 9 1009.6 1009.4 7.6
16/09:00pm 10.5 9.0 10.5 100 0.0 SE 9 15 5 8 1009.5 1009.3 5.6
16/08:46pm 10.8 9.3 10.6 99 0.1 SE 9 15 5 8 1009.3 1009.1 5.6
16/08:30pm 10.6 10.4 10.4 99 0.1 ESE 2 7 1 4 1009.2 1009.0 5.4
16/08:26pm 10.6 10.0 10.4 99 0.1 SE 4 7 2 4 1009.2 1009.0 5.2
16/08:19pm 10.6 10.0 10.4 99 0.1 SW 4 7 2 4 1009.1 1008.9 5.2
16/08:00pm 10.9 8.7 10.7 99 0.1 WSW 13 26 7 14 1008.9 1008.7 3.0
16/07:30pm 10.9 9.0 10.6 98 0.2 NNE 11 11 6 6 1008.8 1008.6 0.6
16/07:00pm 12.6 11.2 10.8 89 1.0 NW 9 13 5 7 1008.7 1008.5 0.6
16/06:30pm 13.6 11.5 11.0 84 1.4 WNW 13 15 7 8 1008.5 1008.3 0.6
16/06:00pm 13.5 11.8 12.6 94 0.5 NW 13 19 7 10 1008.4 1008.2 0.6
16/05:30pm 12.4 9.1 9.4 82 1.6 W 17 24 9 13 1008.2 1008.1 0.4
16/05:00pm 12.2 8.8 11.1 93 0.6 WSW 20 28 11 15 1008.4 1008.2 0.4
16/04:30pm 12.9 7.7 8.8 76 2.1 WSW 26 41 14 22 1008.2 1008.1 0.4
16/04:26pm 13.8 9.6 9.6 76 2.2 W 22 41 12 22 1008.0 1007.8 0.4
16/04:00pm 15.5 12.7 11.3 76 2.3 W 17 22 9 12 1008.0 1007.8 0.4
16/03:30pm 15.0 12.3 13.5 91 0.9 W 20 26 11 14 1008.6 1008.4 0.4
16/03:00pm 12.4 8.3 10.0 85 1.3 W 22 32 12 17 1009.2 1009.0 0.0
16/02:30pm 15.7 10.1 10.2 70 3.0 NNW 30 39 16 21 1008.9 1008.7 0.0
16/02:00pm 14.9 9.3 10.3 74 2.5 NNW 30 35 16 19 1009.4 1009.2 0.0
16/01:30pm 14.4 9.4 10.8 79 1.9 NNW 28 35 15 19 1009.6 1009.4 0.0
16/01:00pm 14.9 10.6 12.2 84 1.5 N 26 35 14 19 1009.7 1009.5 0.0
16/12:45pm 14.1 9.6 11.4 84 1.5 NNW 26 32 14 17 1010.1 1010.0 0.0
16/12:30pm 13.2 9.1 11.6 90 0.9 N 24 35 13 19 1010.2 1010.1 0.0
16/12:00pm 13.1 9.4 12.8 98 0.2 N 24 32 13 17 1010.6 1010.5 0.0
16/11:30am 11.8 8.7 11.6 99 0.1 N 19 24 10 13 1010.6 1010.5 0.0
16/11:26am 11.6 8.2 11.4 99 0.1 N 20 24 11 13 1010.6 1010.5 0.0
16/11:00am 11.6 8.2 11.4 99 0.1 N 20 26 11 14 1011.0 1010.8 0.0
16/10:30am 11.0 7.5 10.8 99 0.1 N 20 26 11 14 1011.1 1010.9 0.0
16/10:00am 11.0 7.1 10.8 99 0.1 N 22 26 12 14 1011.0 1010.8 0.0
16/09:30am 10.8 7.8 10.8 100 0.0 N 17 20 9 11 1011.0 1010.8 0.0
16/09:00am 10.5 7.1 10.5 100 0.0 N 19 20 10 11 1011.5 1011.3 0.6
16/08:30am 10.4 8.1 10.4 100 0.0 N 13 17 7 9 1011.5 1011.3 0.6
16/08:00am 10.2 7.8 10.2 100 0.0 N 13 17 7 9 1011.1 1010.9 0.4
16/07:30am 10.0 8.0 10.0 100 0.0 NNE 11 13 6 7 1011.0 1010.8 0.4
16/07:00am 9.7 8.0 9.7 100 0.0 N 9 13 5 7 1011.3 1011.1 0.0
16/06:30am 9.7 8.3 9.7 100 0.0 N 7 11 4 6 1011.1 1010.9 0.0
16/06:00am 9.8 8.7 9.8 100 0.0 WNW 6 7 3 4 1011.1 1010.9 0.0
16/05:30am 10.0 9.6 9.9 99 0.1 S 2 6 1 3 1011.3 1011.1 0.0
16/05:00am 10.0 8.3 9.9 99 0.1 ESE 9 11 5 6 1011.0 1010.8 0.0
16/04:30am 10.0 8.3 9.9 99 0.1 ESE 9 11 5 6 1011.1 1010.9 0.0
16/04:00am 9.8 8.4 9.7 99 0.1 SE 7 9 4 5 1011.1 1010.9 0.0
16/03:30am 10.2 8.6 10.1 99 0.1 NE 9 11 5 6 1011.7 1011.5 0.0
16/03:00am 10.3 8.6 10.0 98 0.2 SE 9 15 5 8 1011.7 1011.5 0.0
16/02:30am 10.4 8.4 10.1 98 0.2 SE 11 15 6 8 1012.2 1012.1 0.0
16/02:00am 10.5 8.9 10.2 98 0.2 ESE 9 13 5 7 1012.8 1012.7 0.0
16/01:30am 10.7 8.8 10.4 98 0.2 ESE 11 13 6 7 1013.4 1013.2 0.0
16/01:02am 10.8 8.5 10.6 99 0.1 SSE 13 15 7 8 1013.8 1013.6 0.0
16/01:00am 10.8 8.5 10.6 99 0.1 SSE 13 15 7 8 1013.8 1013.6 0.0
16/12:30am 10.9 8.7 10.7 99 0.1 SSE 13 17 7 9 1013.9 1013.7 0.0
16/12:00am 10.9 7.5 10.7 99 0.1 SSE 19 24 10 13 1013.1 1013.0 0.0
 
Date/Time
EDT
Temp
°C
App
Temp
°C
Dew
Point
°C
Rel
Hum
%
Delta-T
°C
Wind Press
QNH
hPa
Press
MSL
hPa
Rain since
9am
mm
Dir  Spd
km/h
Gust
km/h
Spd
kts
Gust
kts
15/11:30pm 10.8 7.8 10.6 99 0.1 SE 17 22 9 12 1013.6 1013.4 0.0
15/11:00pm 10.7 7.1 10.5 99 0.1 SSE 20 26 11 14 1014.1 1014.0 0.0
15/10:30pm 11.0 7.5 10.8 99 0.1 S 20 26 11 14 1014.2 1014.1 0.0
15/10:00pm 11.2 7.9 11.0 99 0.1 SSE 19 24 10 13 1014.6 1014.5 0.0
15/09:30pm 11.6 8.4 11.4 99 0.1 S 19 24 10 13 1014.5 1014.4 0.0
15/09:17pm 11.6 7.9 11.4 99 0.1 S 22 28 12 15 1014.6 1014.5 0.0
15/09:00pm 11.8 7.7 11.5 98 0.2 S 24 30 13 16 1014.4 1014.3 0.0
15/08:30pm 13.0 10.7 9.1 77 2.0 SSW 11 15 6 8 1014.0 1013.9 0.0
15/08:00pm 13.3 11.6 8.4 72 2.5 SW 7 9 4 5 1014.3 1014.2 0.0
15/07:30pm 13.7 11.2 8.1 69 2.8 SW 11 17 6 9 1013.9 1013.7 0.0
15/07:00pm 13.9 13.1 8.1 68 3.0 S 2 7 1 4 1013.1 1013.0 0.0
15/06:30pm 14.2 11.7 8.2 67 3.1 SW 11 19 6 10 1013.4 1013.2 0.0
15/06:00pm 14.9 12.4 8.2 64 3.4 SW 11 15 6 8 1013.5 1013.3 0.0
15/05:30pm 15.2 12.3 8.0 62 3.7 SSW 13 30 7 16 1013.6 1013.4 0.0
15/05:00pm 15.1 11.7 7.6 61 3.8 S 15 20 8 11 1013.4 1013.2 0.0
15/04:30pm 14.8 10.6 8.1 64 3.4 SSW 20 28 11 15 1012.9 1012.8 0.0
15/04:00pm 16.0 12.7 9.4 65 3.5 SSW 17 24 9 13 1013.1 1013.0 0.0
15/03:30pm 15.8 12.0 9.2 65 3.5 SSW 19 28 10 15 1012.8 1012.7 0.0
15/03:00pm 17.1 14.1 10.7 66 3.5 S 17 24 9 13 1012.9 1012.8 0.0
15/02:30pm 16.0 13.1 9.7 66 3.4 S 15 24 8 13 1013.6 1013.4 0.0
15/02:00pm 15.9 13.2 9.1 64 3.6 S 13 20 7 11 1013.7 1013.5 0.0
15/01:30pm 15.0 12.1 8.0 63 3.6 S 13 20 7 11 1013.6 1013.4 0.0
15/01:00pm 15.2 11.2 8.2 63 3.6 S 19 26 10 14 1013.9 1013.7 0.0

Other formats

Comma delimited format used in spreadsheet applications
http://www.bom.gov.au/fwo/IDV60801/IDV60801.94852.axf

JavaScript Object Notation format (JSON) in row-major order
http://www.bom.gov.au/fwo/IDV60801/IDV60801.94852.json

Data quality

Most of these data are generated automatically and are frequently updated. Quality checks on data are not normally performed. It is possible for incorrect values to appear. Refer to information at About Latest Weather Observations and please check the disclaimer before using these data.